createdAt,value
2022-11-25T00:00:00.821Z,69.12
2022-11-25T00:02:28.395Z,69.89
2022-11-25T00:04:56.129Z,69.96
2022-11-25T00:07:23.602Z,70.92
2022-11-25T00:09:50.942Z,70.28
2022-11-25T00:12:18.564Z,70.19
2022-11-25T00:14:45.900Z,70.24
2022-11-25T00:17:13.548Z,69.98
2022-11-25T00:19:41.158Z,70.11
2022-11-25T00:22:08.459Z,70.73
2022-11-25T00:24:36.023Z,70.27
2022-11-25T00:27:05.046Z,69.82
2022-11-25T00:29:35.157Z,69.43
2022-11-25T00:32:02.545Z,68.85
2022-11-25T00:34:33.710Z,68.88
2022-11-25T00:37:01.154Z,69.13
2022-11-25T00:39:28.885Z,69.17
2022-11-25T00:42:15.523Z,69.25
2022-11-25T00:44:42.880Z,69.43
2022-11-25T00:47:12.182Z,69.75
2022-11-25T00:49:40.627Z,69.78
2022-11-25T00:52:08.185Z,69.20
2022-11-25T00:54:36.144Z,70.18
2022-11-25T00:57:03.774Z,70.83
2022-11-25T00:59:31.183Z,73.13
2022-11-25T01:01:59.917Z,75.51
2022-11-25T01:04:27.369Z,76.29
2022-11-25T01:06:56.732Z,73.54
2022-11-25T01:09:24.352Z,75.07
2022-11-25T01:11:51.782Z,74.31
2022-11-25T01:14:19.552Z,72.96
2022-11-25T01:16:48.213Z,75.29
2022-11-25T01:19:15.877Z,76.50
2022-11-25T01:21:43.264Z,75.04
2022-11-25T01:24:13.434Z,72.92
2022-11-25T01:26:40.836Z,71.86
2022-11-25T01:29:17.409Z,71.64
2022-11-25T01:31:45.482Z,71.13
2022-11-25T01:34:20.710Z,70.29
2022-11-25T01:36:48.447Z,71.70
2022-11-25T01:39:20.527Z,73.86
2022-11-25T01:41:49.584Z,71.31
2022-11-25T01:44:21.691Z,70.81
2022-11-25T01:47:01.831Z,71.48
2022-11-25T01:49:50.387Z,72.23
2022-11-25T01:52:29.671Z,73.15
2022-11-25T01:55:01.120Z,73.13
2022-11-25T01:57:34.885Z,73.35
2022-11-25T02:00:02.435Z,73.58
2022-11-25T02:02:31.396Z,75.20
2022-11-25T02:05:00.058Z,74.74
2022-11-25T02:07:41.519Z,75.55
2022-11-25T02:10:11.780Z,76.45
2022-11-25T02:12:44.506Z,77.14
2022-11-25T02:15:12.020Z,74.19
2022-11-25T02:17:39.391Z,74.24
2022-11-25T02:20:14.845Z,75.94
2022-11-25T02:23:03.829Z,73.71
2022-11-25T02:25:32.862Z,77.33
2022-11-25T02:28:10.779Z,75.59
2022-11-25T02:30:38.657Z,77.57
2022-11-25T02:33:06.729Z,77.86
2022-11-25T02:35:36.497Z,77.52
2022-11-25T02:38:22.721Z,75.51
2022-11-25T02:40:58.901Z,76.82
2022-11-25T02:43:27.241Z,77.89
2022-11-25T02:46:00.297Z,77.84
2022-11-25T02:48:46.144Z,77.69
2022-11-25T02:51:17.606Z,78.96
2022-11-25T02:53:45.302Z,76.96
2022-11-25T02:56:13.759Z,74.98
2022-11-25T02:58:41.292Z,74.19
2022-11-25T03:01:09.486Z,75.31
2022-11-25T03:03:37.300Z,75.64
2022-11-25T03:06:07.196Z,78.99
2022-11-25T03:08:35.131Z,80.15
2022-11-25T03:11:06.136Z,79.27
2022-11-25T03:13:33.880Z,78.85
2022-11-25T03:16:01.536Z,77.12
2022-11-25T03:18:29.041Z,79.73
2022-11-25T03:20:56.422Z,80.26
2022-11-25T03:23:24.134Z,78.62
2022-11-25T03:25:54.459Z,79.22
2022-11-25T03:28:22.038Z,79.15
2022-11-25T03:30:50.333Z,79.28
2022-11-25T03:33:17.669Z,79.44
2022-11-25T03:35:45.525Z,80.84
2022-11-25T03:38:13.083Z,82.88
2022-11-25T03:40:41.124Z,84.13
2022-11-25T03:43:09.159Z,83.97
2022-11-25T03:45:37.237Z,79.19
2022-11-25T03:48:05.621Z,79.12
2022-11-25T03:50:33.286Z,78.65
2022-11-25T03:53:00.879Z,77.30
2022-11-25T03:55:28.220Z,76.94
2022-11-25T03:57:55.779Z,76.06
2022-11-25T04:00:24.936Z,75.74
2022-11-25T04:02:53.287Z,75.91
2022-11-25T04:05:21.741Z,74.24
2022-11-25T04:07:52.323Z,74.00
2022-11-25T04:10:23.988Z,76.84
2022-11-25T04:12:52.518Z,76.87
2022-11-25T04:15:20.233Z,76.34
2022-11-25T04:17:48.453Z,76.11
2022-11-25T04:20:15.794Z,75.08
2022-11-25T04:22:43.411Z,73.59
2022-11-25T04:25:11.286Z,72.67
2022-11-25T04:27:38.671Z,72.10
2022-11-25T04:30:08.437Z,72.48
2022-11-25T04:32:37.815Z,74.34
2022-11-25T04:35:06.535Z,79.85
2022-11-25T04:37:34.409Z,80.91
2022-11-25T04:40:02.014Z,79.40
2022-11-25T04:42:32.923Z,79.80
2022-11-25T04:45:21.934Z,79.75
2022-11-25T04:47:49.119Z,79.29
2022-11-25T04:50:19.146Z,76.83
2022-11-25T04:52:47.467Z,75.32
2022-11-25T04:55:15.098Z,74.14
2022-11-25T04:57:43.131Z,72.76
2022-11-25T05:00:11.651Z,72.88
2022-11-25T05:02:39.458Z,72.39
2022-11-25T05:05:07.817Z,72.24
2022-11-25T05:07:35.407Z,72.13
2022-11-25T05:10:03.204Z,71.65
2022-11-25T05:12:31.338Z,71.57
2022-11-25T05:14:59.365Z,71.98
2022-11-25T05:17:28.646Z,71.47
2022-11-25T05:19:56.156Z,73.09
2022-11-25T05:22:25.771Z,73.51
2022-11-25T05:24:53.575Z,73.53
2022-11-25T05:27:21.380Z,73.20
2022-11-25T05:29:52.928Z,74.30
2022-11-25T05:32:23.885Z,74.56
2022-11-25T05:34:51.627Z,76.25
2022-11-25T05:37:24.081Z,75.13
2022-11-25T05:39:52.276Z,75.08
2022-11-25T05:42:20.751Z,74.92
2022-11-25T05:44:48.418Z,76.48
2022-11-25T05:47:16.031Z,76.16
2022-11-25T05:49:43.437Z,75.74
2022-11-25T05:52:10.876Z,74.38
2022-11-25T05:54:39.348Z,73.99
2022-11-25T05:57:06.945Z,73.43
2022-11-25T05:59:39.142Z,73.74
2022-11-25T06:02:07.053Z,73.10
2022-11-25T06:04:35.166Z,73.76
2022-11-25T06:07:03.197Z,73.23
2022-11-25T06:09:30.717Z,72.59
2022-11-25T06:11:58.438Z,72.34
2022-11-25T06:14:25.919Z,72.16
2022-11-25T06:16:53.506Z,71.44
2022-11-25T06:19:21.946Z,71.89
2022-11-25T06:21:49.267Z,71.89
2022-11-25T06:24:16.669Z,71.62
2022-11-25T06:26:44.651Z,71.52
2022-11-25T06:29:12.013Z,71.34
2022-11-25T06:31:39.870Z,70.83
2022-11-25T06:34:09.341Z,70.44
2022-11-25T06:36:36.952Z,70.12
2022-11-25T06:39:04.428Z,70.85
2022-11-25T06:41:32.050Z,70.33
2022-11-25T06:43:59.399Z,69.80
2022-11-25T06:46:26.770Z,70.36
2022-11-25T06:48:54.398Z,69.44
2022-11-25T06:51:21.780Z,69.88
2022-11-25T06:53:49.122Z,69.30
2022-11-25T06:56:23.673Z,69.21
2022-11-25T06:58:51.273Z,69.88
2022-11-25T07:01:19.985Z,69.50
2022-11-25T07:03:48.863Z,69.09
2022-11-25T07:06:16.515Z,69.16
2022-11-25T07:08:44.330Z,68.74
2022-11-25T07:11:23.478Z,68.25
2022-11-25T07:13:56.273Z,68.46
2022-11-25T07:16:23.827Z,68.35
2022-11-25T07:18:51.557Z,68.25
2022-11-25T07:21:20.646Z,68.52
2022-11-25T07:23:48.075Z,67.87
2022-11-25T07:26:23.531Z,67.85
2022-11-25T07:28:52.271Z,67.57
2022-11-25T07:31:34.572Z,66.96
2022-11-25T07:34:12.419Z,66.91
2022-11-25T07:36:40.228Z,66.89
2022-11-25T07:39:09.327Z,66.46
2022-11-25T07:41:36.679Z,66.84
2022-11-25T07:44:05.238Z,67.34
2022-11-25T07:46:37.694Z,67.21
2022-11-25T07:49:26.437Z,67.75
2022-11-25T07:51:56.665Z,67.96
2022-11-25T07:54:26.240Z,69.94
2022-11-25T07:56:54.530Z,74.45
2022-11-25T07:59:22.349Z,71.89
2022-11-25T08:01:51.060Z,70.34
2022-11-25T08:04:20.789Z,68.83
2022-11-25T08:06:49.852Z,69.07
2022-11-25T08:09:19.312Z,69.36
2022-11-25T08:11:47.561Z,69.15
2022-11-25T08:14:15.232Z,68.21
2022-11-25T08:16:42.567Z,67.64
2022-11-25T08:19:13.781Z,67.04
2022-11-25T08:21:41.553Z,67.12
2022-11-25T08:24:13.312Z,66.95
2022-11-25T08:26:40.926Z,66.88
2022-11-25T08:29:09.319Z,66.32
2022-11-25T08:31:37.955Z,66.16
2022-11-25T08:34:06.124Z,66.65
2022-11-25T08:36:48.664Z,65.77
2022-11-25T08:39:44.428Z,65.44
2022-11-25T08:42:04.980Z,66.38
2022-11-25T08:44:32.600Z,66.28
2022-11-25T08:47:00.018Z,68.66
2022-11-25T08:49:29.241Z,70.35
2022-11-25T08:51:56.929Z,67.04
2022-11-25T08:54:24.285Z,66.53
2022-11-25T08:56:51.622Z,66.49
2022-11-25T08:59:19.204Z,66.67
2022-11-25T09:01:46.621Z,69.41
2022-11-25T09:04:14.022Z,68.61
2022-11-25T09:06:41.616Z,67.01
2022-11-25T09:09:08.954Z,66.33
2022-11-25T09:11:36.385Z,68.62
2022-11-25T09:14:04.162Z,67.41
2022-11-25T09:16:31.619Z,67.01
2022-11-25T09:19:00.015Z,67.32
2022-11-25T09:21:27.678Z,67.33
2022-11-25T09:23:55.064Z,68.06
2022-11-25T09:26:26.903Z,66.74
2022-11-25T09:28:54.717Z,66.82
2022-11-25T09:31:22.511Z,66.09
2022-11-25T09:33:49.973Z,67.87
2022-11-25T09:36:18.164Z,66.97
2022-11-25T09:38:45.619Z,68.72
2022-11-25T09:41:45.872Z,67.31
2022-11-25T09:44:44.293Z,66.81
2022-11-25T09:47:45.240Z,67.55
2022-11-25T09:50:23.914Z,65.98
2022-11-25T09:53:25.047Z,68.66
2022-11-25T09:56:00.046Z,68.18
2022-11-25T09:58:37.347Z,65.93
2022-11-25T10:01:14.371Z,67.49
2022-11-25T10:03:46.263Z,69.12
2022-11-25T10:06:17.999Z,67.13
2022-11-25T10:08:59.008Z,66.80
2022-11-25T10:11:44.783Z,67.41
2022-11-25T10:14:21.571Z,67.16
2022-11-25T10:17:11.575Z,66.23
2022-11-25T10:20:11.832Z,67.84
2022-11-25T10:22:46.773Z,67.43
2022-11-25T10:25:17.127Z,68.89
2022-11-25T10:28:00.200Z,69.90
2022-11-25T10:30:34.451Z,68.33
2022-11-25T10:33:21.142Z,67.10
2022-11-25T10:35:51.827Z,68.02
2022-11-25T10:38:25.102Z,67.94
2022-11-25T10:40:52.775Z,67.42
2022-11-25T10:43:20.225Z,65.44
2022-11-25T10:45:53.236Z,66.75
2022-11-25T10:48:44.204Z,67.43
2022-11-25T10:51:32.279Z,68.24
2022-11-25T10:54:39.018Z,67.53
2022-11-25T10:57:17.867Z,67.80
2022-11-25T10:59:56.149Z,66.00
2022-11-25T11:02:30.979Z,64.95
2022-11-25T11:05:11.088Z,66.83
2022-11-25T11:07:42.998Z,66.97
2022-11-25T11:10:26.254Z,66.13
2022-11-25T11:13:03.816Z,64.99
2022-11-25T11:15:41.372Z,65.82
2022-11-25T11:18:25.750Z,66.42
2022-11-25T11:20:55.540Z,65.89
2022-11-25T11:23:23.029Z,66.14
2022-11-25T11:26:03.592Z,64.95
2022-11-25T11:28:38.966Z,64.08
2022-11-25T11:31:17.512Z,65.25
2022-11-25T11:33:48.370Z,65.66
2022-11-25T11:36:53.085Z,64.74
2022-11-25T11:40:00.253Z,67.15
2022-11-25T11:42:38.446Z,65.46
2022-11-25T11:45:06.286Z,64.91
2022-11-25T11:47:52.433Z,64.84
2022-11-25T11:50:24.974Z,63.92
2022-11-25T11:52:55.324Z,62.85
2022-11-25T11:56:00.299Z,63.78
2022-11-25T11:58:52.009Z,65.08
2022-11-25T12:01:56.940Z,64.86
2022-11-25T12:04:28.525Z,63.76
2022-11-25T12:07:22.986Z,63.39
2022-11-25T12:09:57.090Z,62.28
2022-11-25T12:12:33.172Z,61.95
2022-11-25T12:15:21.175Z,62.65
2022-11-25T12:18:23.595Z,61.41
2022-11-25T12:21:03.019Z,62.51
2022-11-25T12:23:36.119Z,65.39
2022-11-25T12:26:08.184Z,63.11
2022-11-25T12:28:43.536Z,62.33
2022-11-25T12:31:20.738Z,62.14
2022-11-25T12:34:04.403Z,62.58
2022-11-25T12:36:40.486Z,61.46
2022-11-25T12:39:33.023Z,61.73
2022-11-25T12:42:06.104Z,60.70
2022-11-25T12:44:59.594Z,61.53
2022-11-25T12:47:27.646Z,60.89
2022-11-25T12:49:55.418Z,60.77
2022-11-25T12:52:42.825Z,60.35
2022-11-25T12:55:27.912Z,60.49
2022-11-25T12:58:11.753Z,59.79
2022-11-25T13:01:18.420Z,60.07
2022-11-25T13:04:07.468Z,60.24
2022-11-25T13:06:53.959Z,60.51
2022-11-25T13:10:01.923Z,60.72
2022-11-25T13:12:48.365Z,60.88
2022-11-25T13:15:38.184Z,60.56
2022-11-25T13:18:11.402Z,60.79
2022-11-25T13:20:44.204Z,60.60
2022-11-25T13:23:13.139Z,60.86
2022-11-25T13:25:41.383Z,60.26
2022-11-25T13:28:34.123Z,60.83
2022-11-25T13:31:14.093Z,61.04
2022-11-25T13:33:44.778Z,60.58
2022-11-25T13:36:16.496Z,60.69
2022-11-25T13:38:50.050Z,62.87
2022-11-25T13:41:22.921Z,66.40
2022-11-25T13:44:04.361Z,64.66
2022-11-25T13:46:39.623Z,63.75
2022-11-25T13:49:28.824Z,63.57
2022-11-25T13:52:11.777Z,62.66
2022-11-25T13:54:49.761Z,62.61
2022-11-25T13:57:19.888Z,61.73
2022-11-25T13:59:55.580Z,61.51
2022-11-25T14:02:29.089Z,61.18
2022-11-25T14:05:30.553Z,61.21
2022-11-25T14:08:20.986Z,61.32
2022-11-25T14:11:37.628Z,61.37
2022-11-25T14:14:55.975Z,61.71
2022-11-25T14:17:24.151Z,61.72
2022-11-25T14:20:05.059Z,61.91
2022-11-25T14:23:09.796Z,62.27
2022-11-25T14:25:56.408Z,62.58
2022-11-25T14:28:42.001Z,63.28
2022-11-25T14:31:11.251Z,63.41
2022-11-25T14:34:00.310Z,63.64
2022-11-25T14:36:30.883Z,65.65
2022-11-25T14:39:00.888Z,65.04
2022-11-25T14:41:33.229Z,64.45
2022-11-25T14:44:04.035Z,64.61
2022-11-25T14:46:31.501Z,64.31
2022-11-25T14:49:00.289Z,64.08
2022-11-25T14:51:33.515Z,63.87
2022-11-25T14:54:00.855Z,64.01
2022-11-25T14:56:34.163Z,64.12
2022-11-25T14:59:01.504Z,64.54
2022-11-25T15:01:30.523Z,64.42
2022-11-25T15:04:05.059Z,64.41
2022-11-25T15:06:36.687Z,65.69
2022-11-25T15:09:04.206Z,65.23
2022-11-25T15:11:32.683Z,64.90
2022-11-25T15:14:02.980Z,64.79
2022-11-25T15:16:38.203Z,64.95
2022-11-25T15:19:06.909Z,64.88
2022-11-25T15:21:48.385Z,64.77
2022-11-25T15:24:28.197Z,65.20
2022-11-25T15:27:05.128Z,65.50
2022-11-25T15:29:36.379Z,65.80
2022-11-25T15:32:03.923Z,65.87
2022-11-25T15:34:31.356Z,65.61
2022-11-25T15:37:01.182Z,65.68
2022-11-25T15:39:29.487Z,65.94
2022-11-25T15:42:07.470Z,66.11
2022-11-25T15:44:38.624Z,65.99
2022-11-25T15:47:25.447Z,66.35
2022-11-25T15:50:02.513Z,66.25
2022-11-25T15:52:31.016Z,66.31
2022-11-25T15:55:31.875Z,66.36
2022-11-25T15:58:03.327Z,66.43
2022-11-25T16:00:30.877Z,66.45
2022-11-25T16:02:58.535Z,66.49
2022-11-25T16:05:31.860Z,66.48
2022-11-25T16:08:23.336Z,66.50
2022-11-25T16:10:55.317Z,66.68
2022-11-25T16:13:23.126Z,66.73
2022-11-25T16:16:12.175Z,66.90
2022-11-25T16:18:55.931Z,67.00
2022-11-25T16:21:30.709Z,67.23
2022-11-25T16:24:06.113Z,67.27
2022-11-25T16:26:38.156Z,67.29
2022-11-25T16:29:14.784Z,67.61
2022-11-25T16:31:42.185Z,67.85
2022-11-25T16:34:13.681Z,67.70
2022-11-25T16:36:41.312Z,67.65
2022-11-25T16:39:09.130Z,67.80
2022-11-25T16:41:36.737Z,67.92
2022-11-25T16:44:21.238Z,67.86
2022-11-25T16:46:48.954Z,68.20
2022-11-25T16:49:17.365Z,68.22
2022-11-25T16:51:44.704Z,68.32
2022-11-25T16:54:16.269Z,68.58
2022-11-25T16:56:43.631Z,68.48
2022-11-25T16:59:25.561Z,68.51
2022-11-25T17:01:53.432Z,68.54
2022-11-25T17:04:21.280Z,68.60
2022-11-25T17:07:16.391Z,68.88
2022-11-25T17:09:36.609Z,68.60
2022-11-25T17:12:04.595Z,68.82
2022-11-25T17:14:33.573Z,68.59
2022-11-25T17:17:01.436Z,68.95
2022-11-25T17:19:29.330Z,68.91
2022-11-25T17:21:56.761Z,68.91
2022-11-25T17:24:24.755Z,69.25
2022-11-25T17:27:00.451Z,68.92
2022-11-25T17:29:33.007Z,69.30
2022-11-25T17:32:00.433Z,69.15
2022-11-25T17:34:28.080Z,68.85
2022-11-25T17:36:55.452Z,68.92
2022-11-25T17:39:22.835Z,69.34
2022-11-25T17:41:50.928Z,69.33
2022-11-25T17:44:28.503Z,69.12
2022-11-25T17:46:57.283Z,69.86
2022-11-25T17:49:24.763Z,69.24
2022-11-25T17:51:52.109Z,69.94
2022-11-25T17:54:19.721Z,69.79
2022-11-25T17:56:52.097Z,69.95
2022-11-25T17:59:30.434Z,69.65
2022-11-25T18:01:59.205Z,69.73
2022-11-25T18:04:29.858Z,69.64
2022-11-25T18:06:57.234Z,70.07
2022-11-25T18:09:24.583Z,69.99
2022-11-25T18:11:53.867Z,69.74
2022-11-25T18:14:34.460Z,69.83
2022-11-25T18:17:03.808Z,69.75
2022-11-25T18:19:31.678Z,70.36
2022-11-25T18:22:15.601Z,69.57
2022-11-25T18:24:43.250Z,69.74
2022-11-25T18:27:32.088Z,69.84
2022-11-25T18:30:02.532Z,69.80
2022-11-25T18:32:30.562Z,70.07
2022-11-25T18:34:57.901Z,69.97
2022-11-25T18:37:25.576Z,70.01
2022-11-25T18:39:52.939Z,70.22
2022-11-25T18:42:27.073Z,70.37
2022-11-25T18:44:55.178Z,70.40
2022-11-25T18:47:22.536Z,70.54
2022-11-25T18:49:55.089Z,70.31
2022-11-25T18:52:24.664Z,70.34
2022-11-25T18:54:52.172Z,70.32
2022-11-25T18:57:19.507Z,70.56
2022-11-25T18:59:55.975Z,70.30
2022-11-25T19:02:34.776Z,70.54
2022-11-25T19:05:02.843Z,70.33
2022-11-25T19:07:30.304Z,70.77
2022-11-25T19:09:57.649Z,70.33
2022-11-25T19:12:25.294Z,70.68
2022-11-25T19:14:52.689Z,70.48
2022-11-25T19:17:21.436Z,70.65
2022-11-25T19:19:49.068Z,70.77
2022-11-25T19:22:18.040Z,70.92
2022-11-25T19:24:46.150Z,70.64
2022-11-25T19:27:23.356Z,70.36
2022-11-25T19:29:50.916Z,70.36
2022-11-25T19:32:21.146Z,70.69
2022-11-25T19:34:53.141Z,70.67
2022-11-25T19:37:21.572Z,70.11
2022-11-25T19:39:52.111Z,70.45
2022-11-25T19:42:19.505Z,70.42
2022-11-25T19:44:47.149Z,70.16
2022-11-25T19:47:24.771Z,70.42
2022-11-25T19:49:57.212Z,70.09
2022-11-25T19:52:30.717Z,70.02
2022-11-25T19:54:58.313Z,69.90
2022-11-25T19:57:25.655Z,70.25
2022-11-25T19:59:52.972Z,69.75
2022-11-25T20:02:22.049Z,69.84
2022-11-25T20:04:51.119Z,69.45
2022-11-25T20:07:19.451Z,69.54
2022-11-25T20:09:47.551Z,69.10
2022-11-25T20:12:21.708Z,69.42
2022-11-25T20:14:49.158Z,69.76
2022-11-25T20:17:27.456Z,69.39
2022-11-25T20:19:57.131Z,69.50
2022-11-25T20:22:26.951Z,68.52
2022-11-25T20:24:54.239Z,69.45
2022-11-25T20:27:24.398Z,69.69
2022-11-25T20:29:52.048Z,69.71
2022-11-25T20:32:28.113Z,69.79
2022-11-25T20:34:58.652Z,69.28
2022-11-25T20:37:26.438Z,69.32
2022-11-25T20:39:55.346Z,69.55
2022-11-25T20:42:23.032Z,69.53
2022-11-25T20:44:55.941Z,70.04
2022-11-25T20:47:26.451Z,70.01
2022-11-25T20:49:53.996Z,68.95
2022-11-25T20:52:28.334Z,69.59
2022-11-25T20:54:56.169Z,69.91
2022-11-25T20:57:23.775Z,69.71
2022-11-25T20:59:51.241Z,69.95
2022-11-25T21:02:21.535Z,69.83
2022-11-25T21:04:49.089Z,69.68
2022-11-25T21:07:17.886Z,70.32
2022-11-25T21:09:45.583Z,69.68
2022-11-25T21:12:19.439Z,69.76
2022-11-25T21:14:47.479Z,69.85
2022-11-25T21:17:14.930Z,69.63
2022-11-25T21:19:42.268Z,69.15
2022-11-25T21:22:22.403Z,69.52
2022-11-25T21:24:49.764Z,69.27
2022-11-25T21:27:17.399Z,68.81
2022-11-25T21:29:44.776Z,68.89
2022-11-25T21:32:22.615Z,69.61
2022-11-25T21:34:50.236Z,69.27
2022-11-25T21:37:18.226Z,69.69
2022-11-25T21:39:45.533Z,69.76
2022-11-25T21:42:17.777Z,69.77
2022-11-25T21:44:45.103Z,70.31
2022-11-25T21:47:23.456Z,70.65
2022-11-25T21:49:51.118Z,70.97
2022-11-25T21:52:18.837Z,70.32
2022-11-25T21:54:46.196Z,70.29
2022-11-25T21:57:26.194Z,70.43
2022-11-25T21:59:53.923Z,70.29
2022-11-25T22:02:22.352Z,69.91
2022-11-25T22:04:50.210Z,70.70
2022-11-25T22:07:17.643Z,70.31
2022-11-25T22:09:45.012Z,70.02
2022-11-25T22:12:30.571Z,69.44
2022-11-25T22:14:58.274Z,69.69
2022-11-25T22:17:26.152Z,69.29
2022-11-25T22:19:53.558Z,69.35
2022-11-25T22:22:20.981Z,69.15
2022-11-25T22:24:48.556Z,68.68
2022-11-25T22:27:22.215Z,68.73
2022-11-25T22:29:49.826Z,68.40
2022-11-25T22:32:17.344Z,69.36
2022-11-25T22:34:44.701Z,69.09
2022-11-25T22:37:17.036Z,69.00
2022-11-25T22:39:44.385Z,68.19
2022-11-25T22:42:28.658Z,68.61
2022-11-25T22:44:56.327Z,68.42
2022-11-25T22:47:37.744Z,69.19
2022-11-25T22:50:12.384Z,69.05
2022-11-25T22:52:40.006Z,68.48
2022-11-25T22:55:18.207Z,68.80
2022-11-25T22:57:46.473Z,68.55
2022-11-25T23:00:25.347Z,69.17
2022-11-25T23:02:55.155Z,69.65
2022-11-25T23:05:32.190Z,69.48
2022-11-25T23:08:18.091Z,69.90
2022-11-25T23:10:45.522Z,69.26
2022-11-25T23:13:14.510Z,69.16
2022-11-25T23:15:44.571Z,69.15
2022-11-25T23:18:14.542Z,69.79
2022-11-25T23:20:42.439Z,69.52
2022-11-25T23:23:15.839Z,69.01
2022-11-25T23:25:43.680Z,69.27
2022-11-25T23:28:11.088Z,69.98
2022-11-25T23:30:38.765Z,69.83
2022-11-25T23:33:09.281Z,70.33
2022-11-25T23:35:37.260Z,71.13
2022-11-25T23:38:07.933Z,72.72
2022-11-25T23:40:35.545Z,71.59
2022-11-25T23:43:03.070Z,70.79
2022-11-25T23:45:30.493Z,70.14
2022-11-25T23:47:58.108Z,70.60
2022-11-25T23:50:25.260Z,70.47
2022-11-25T23:52:52.839Z,70.19
2022-11-25T23:55:23.901Z,70.27
2022-11-25T23:57:51.240Z,69.77
